sensor_id;sensor_type;location;lat;lon;timestamp;P1;durP1;ratioP1;P2;durP2;ratioP2
55601;SDS011;59921;51.332;12.410;2023-05-19T00:01:37;1.10;;;0.82;;
55601;SDS011;59921;51.332;12.410;2023-05-19T00:04:02;1.30;;;0.90;;
55601;SDS011;59921;51.332;12.410;2023-05-19T00:06:30;1.13;;;0.88;;
55601;SDS011;59921;51.332;12.410;2023-05-19T00:08:58;1.42;;;0.98;;
55601;SDS011;59921;51.332;12.410;2023-05-19T00:11:27;1.48;;;0.90;;
55601;SDS011;59921;51.332;12.410;2023-05-19T00:13:54;1.33;;;0.95;;
55601;SDS011;59921;51.332;12.410;2023-05-19T00:16:22;1.45;;;1.00;;
55601;SDS011;59921;51.332;12.410;2023-05-19T00:18:48;1.40;;;0.93;;
55601;SDS011;59921;51.332;12.410;2023-05-19T00:21:14;1.27;;;0.90;;
55601;SDS011;59921;51.332;12.410;2023-05-19T00:23:41;1.30;;;1.00;;
55601;SDS011;59921;51.332;12.410;2023-05-19T00:26:06;1.70;;;1.05;;
55601;SDS011;59921;51.332;12.410;2023-05-19T00:28:32;1.30;;;0.93;;
55601;SDS011;59921;51.332;12.410;2023-05-19T00:30:58;1.73;;;1.20;;
55601;SDS011;59921;51.332;12.410;2023-05-19T00:33:23;1.08;;;0.80;;
55601;SDS011;59921;51.332;12.410;2023-05-19T00:35:49;1.08;;;0.85;;
55601;SDS011;59921;51.332;12.410;2023-05-19T00:38:15;1.25;;;0.93;;
55601;SDS011;59921;51.332;12.410;2023-05-19T00:40:40;1.10;;;0.88;;
55601;SDS011;59921;51.332;12.410;2023-05-19T00:43:06;1.45;;;0.90;;
55601;SDS011;59921;51.332;12.410;2023-05-19T00:45:33;1.50;;;0.98;;
55601;SDS011;59921;51.332;12.410;2023-05-19T00:47:59;2.38;;;1.10;;
55601;SDS011;59921;51.332;12.410;2023-05-19T00:50:25;1.45;;;0.90;;
55601;SDS011;59921;51.332;12.410;2023-05-19T00:52:53;1.77;;;1.00;;
55601;SDS011;59921;51.332;12.410;2023-05-19T00:55:24;1.42;;;1.10;;
55601;SDS011;59921;51.332;12.410;2023-05-19T00:57:51;1.20;;;1.00;;
55601;SDS011;59921;51.332;12.410;2023-05-19T01:00:18;1.02;;;0.90;;
55601;SDS011;59921;51.332;12.410;2023-05-19T01:02:44;1.30;;;0.90;;
55601;SDS011;59921;51.332;12.410;2023-05-19T01:05:10;1.20;;;0.98;;
55601;SDS011;59921;51.332;12.410;2023-05-19T01:07:37;1.73;;;1.20;;
55601;SDS011;59921;51.332;12.410;2023-05-19T01:10:04;1.88;;;1.00;;
55601;SDS011;59921;51.332;12.410;2023-05-19T01:12:30;1.20;;;1.05;;
55601;SDS011;59921;51.332;12.410;2023-05-19T01:14:56;1.50;;;1.08;;
55601;SDS011;59921;51.332;12.410;2023-05-19T01:17:28;2.25;;;1.10;;
55601;SDS011;59921;51.332;12.410;2023-05-19T01:31:49;1.63;;;1.23;;
55601;SDS011;59921;51.332;12.410;2023-05-19T01:34:16;1.83;;;1.02;;
55601;SDS011;59921;51.332;12.410;2023-05-19T01:36:44;1.13;;;0.93;;
55601;SDS011;59921;51.332;12.410;2023-05-19T01:39:13;1.50;;;0.82;;
55601;SDS011;59921;51.332;12.410;2023-05-19T01:41:40;1.30;;;0.93;;
55601;SDS011;59921;51.332;12.410;2023-05-19T01:44:07;1.30;;;1.10;;
55601;SDS011;59921;51.332;12.410;2023-05-19T01:46:34;1.20;;;1.00;;
55601;SDS011;59921;51.332;12.410;2023-05-19T01:49:00;1.30;;;0.93;;
55601;SDS011;59921;51.332;12.410;2023-05-19T01:51:26;1.70;;;1.08;;
55601;SDS011;59921;51.332;12.410;2023-05-19T01:53:51;1.10;;;0.90;;
55601;SDS011;59921;51.332;12.410;2023-05-19T01:56:19;1.63;;;0.93;;
55601;SDS011;59921;51.332;12.410;2023-05-19T01:58:59;1.40;;;1.10;;
55601;SDS011;59921;51.332;12.410;2023-05-19T02:04:35;1.23;;;0.93;;
55601;SDS011;59921;51.332;12.410;2023-05-19T02:07:16;1.30;;;1.00;;
55601;SDS011;59921;51.332;12.410;2023-05-19T02:10:07;1.40;;;1.05;;
55601;SDS011;59921;51.332;12.410;2023-05-19T02:12:36;1.20;;;0.80;;
55601;SDS011;59921;51.332;12.410;2023-05-19T02:15:12;1.90;;;1.02;;
55601;SDS011;59921;51.332;12.410;2023-05-19T02:17:45;1.80;;;1.00;;
55601;SDS011;59921;51.332;12.410;2023-05-19T02:20:14;1.20;;;0.90;;
55601;SDS011;59921;51.332;12.410;2023-05-19T02:22:40;1.40;;;0.95;;
55601;SDS011;59921;51.332;12.410;2023-05-19T02:25:07;1.27;;;1.00;;
55601;SDS011;59921;51.332;12.410;2023-05-19T02:27:36;1.75;;;1.00;;
55601;SDS011;59921;51.332;12.410;2023-05-19T02:30:03;1.15;;;0.90;;
55601;SDS011;59921;51.332;12.410;2023-05-19T02:32:29;1.08;;;0.90;;
55601;SDS011;59921;51.332;12.410;2023-05-19T02:34:54;1.30;;;1.00;;
55601;SDS011;59921;51.332;12.410;2023-05-19T02:37:20;1.10;;;0.98;;
55601;SDS011;59921;51.332;12.410;2023-05-19T02:39:47;1.10;;;0.90;;
55601;SDS011;59921;51.332;12.410;2023-05-19T02:42:13;1.20;;;0.90;;
55601;SDS011;59921;51.332;12.410;2023-05-19T02:44:41;1.10;;;1.00;;
55601;SDS011;59921;51.332;12.410;2023-05-19T02:47:07;1.70;;;1.10;;
55601;SDS011;59921;51.332;12.410;2023-05-19T02:49:33;1.00;;;0.90;;
55601;SDS011;59921;51.332;12.410;2023-05-19T02:52:01;1.30;;;0.90;;
55601;SDS011;59921;51.332;12.410;2023-05-19T02:54:30;1.23;;;0.98;;
55601;SDS011;59921;51.332;12.410;2023-05-19T02:56:57;1.95;;;0.90;;
55601;SDS011;59921;51.332;12.410;2023-05-19T02:59:23;1.30;;;0.90;;
55601;SDS011;59921;51.332;12.410;2023-05-19T03:01:49;1.33;;;0.90;;
55601;SDS011;59921;51.332;12.410;2023-05-19T03:04:15;2.13;;;1.00;;
55601;SDS011;59921;51.332;12.410;2023-05-19T03:06:40;1.35;;;0.90;;
55601;SDS011;59921;51.332;12.410;2023-05-19T03:09:09;1.63;;;1.08;;
55601;SDS011;59921;51.332;12.410;2023-05-19T03:11:35;1.15;;;1.00;;
55601;SDS011;59921;51.332;12.410;2023-05-19T03:14:00;1.35;;;0.90;;
55601;SDS011;59921;51.332;12.410;2023-05-19T03:16:25;1.33;;;1.00;;
55601;SDS011;59921;51.332;12.410;2023-05-19T03:18:52;1.42;;;1.00;;
55601;SDS011;59921;51.332;12.410;2023-05-19T03:21:17;2.15;;;1.13;;
55601;SDS011;59921;51.332;12.410;2023-05-19T03:23:43;1.23;;;0.90;;
55601;SDS011;59921;51.332;12.410;2023-05-19T03:26:09;1.45;;;1.00;;
55601;SDS011;59921;51.332;12.410;2023-05-19T03:28:34;1.42;;;0.95;;
55601;SDS011;59921;51.332;12.410;2023-05-19T03:31:00;1.88;;;1.08;;
55601;SDS011;59921;51.332;12.410;2023-05-19T03:33:25;1.60;;;1.10;;
55601;SDS011;59921;51.332;12.410;2023-05-19T03:35:54;1.38;;;0.90;;
55601;SDS011;59921;51.332;12.410;2023-05-19T03:38:20;1.42;;;1.00;;
55601;SDS011;59921;51.332;12.410;2023-05-19T03:40:46;1.08;;;0.80;;
55601;SDS011;59921;51.332;12.410;2023-05-19T03:43:11;1.30;;;0.95;;
55601;SDS011;59921;51.332;12.410;2023-05-19T03:45:37;1.52;;;0.90;;
55601;SDS011;59921;51.332;12.410;2023-05-19T03:48:03;1.60;;;0.95;;
55601;SDS011;59921;51.332;12.410;2023-05-19T03:50:29;1.50;;;1.00;;
55601;SDS011;59921;51.332;12.410;2023-05-19T03:52:55;1.40;;;1.00;;
55601;SDS011;59921;51.332;12.410;2023-05-19T03:55:21;1.42;;;0.98;;
55601;SDS011;59921;51.332;12.410;2023-05-19T03:57:47;1.60;;;1.00;;
55601;SDS011;59921;51.332;12.410;2023-05-19T04:00:13;1.75;;;0.93;;
55601;SDS011;59921;51.332;12.410;2023-05-19T04:02:39;1.58;;;1.05;;
55601;SDS011;59921;51.332;12.410;2023-05-19T04:05:05;1.45;;;1.00;;
55601;SDS011;59921;51.332;12.410;2023-05-19T04:07:31;1.10;;;0.90;;
55601;SDS011;59921;51.332;12.410;2023-05-19T04:09:57;1.05;;;0.93;;
55601;SDS011;59921;51.332;12.410;2023-05-19T04:12:23;1.60;;;1.30;;
55601;SDS011;59921;51.332;12.410;2023-05-19T04:14:48;1.77;;;1.08;;
55601;SDS011;59921;51.332;12.410;2023-05-19T04:17:14;1.40;;;1.05;;
55601;SDS011;59921;51.332;12.410;2023-05-19T04:19:40;1.58;;;1.10;;
55601;SDS011;59921;51.332;12.410;2023-05-19T04:22:05;1.15;;;0.90;;
55601;SDS011;59921;51.332;12.410;2023-05-19T04:24:31;2.40;;;1.08;;
55601;SDS011;59921;51.332;12.410;2023-05-19T04:26:57;1.40;;;1.05;;
55601;SDS011;59921;51.332;12.410;2023-05-19T04:29:29;1.50;;;1.00;;
55601;SDS011;59921;51.332;12.410;2023-05-19T04:31:55;1.92;;;1.23;;
55601;SDS011;59921;51.332;12.410;2023-05-19T04:34:21;1.20;;;1.00;;
55601;SDS011;59921;51.332;12.410;2023-05-19T04:36:47;1.58;;;1.10;;
55601;SDS011;59921;51.332;12.410;2023-05-19T04:39:13;2.72;;;1.30;;
55601;SDS011;59921;51.332;12.410;2023-05-19T04:41:39;2.05;;;1.35;;
55601;SDS011;59921;51.332;12.410;2023-05-19T04:44:06;1.40;;;1.08;;
55601;SDS011;59921;51.332;12.410;2023-05-19T04:46:33;1.77;;;1.38;;
55601;SDS011;59921;51.332;12.410;2023-05-19T04:48:59;2.03;;;1.20;;
55601;SDS011;59921;51.332;12.410;2023-05-19T04:51:28;2.13;;;1.48;;
55601;SDS011;59921;51.332;12.410;2023-05-19T04:53:55;2.33;;;1.30;;
55601;SDS011;59921;51.332;12.410;2023-05-19T04:56:21;1.75;;;1.30;;
55601;SDS011;59921;51.332;12.410;2023-05-19T04:58:46;1.90;;;1.17;;
55601;SDS011;59921;51.332;12.410;2023-05-19T05:01:12;1.60;;;1.20;;
55601;SDS011;59921;51.332;12.410;2023-05-19T05:03:40;1.77;;;1.20;;
55601;SDS011;59921;51.332;12.410;2023-05-19T05:06:06;1.73;;;1.20;;
55601;SDS011;59921;51.332;12.410;2023-05-19T05:08:32;1.70;;;1.30;;
55601;SDS011;59921;51.332;12.410;2023-05-19T05:10:57;1.90;;;1.20;;
55601;SDS011;59921;51.332;12.410;2023-05-19T05:13:23;2.05;;;1.23;;
55601;SDS011;59921;51.332;12.410;2023-05-19T05:15:50;1.95;;;1.20;;
55601;SDS011;59921;51.332;12.410;2023-05-19T05:18:18;1.60;;;1.27;;
55601;SDS011;59921;51.332;12.410;2023-05-19T05:20:44;1.45;;;1.20;;
55601;SDS011;59921;51.332;12.410;2023-05-19T05:23:11;2.08;;;1.10;;
55601;SDS011;59921;51.332;12.410;2023-05-19T05:25:41;2.15;;;1.38;;
55601;SDS011;59921;51.332;12.410;2023-05-19T05:28:07;1.45;;;1.13;;
55601;SDS011;59921;51.332;12.410;2023-05-19T05:30:32;1.60;;;1.10;;
55601;SDS011;59921;51.332;12.410;2023-05-19T05:32:59;1.92;;;1.20;;
55601;SDS011;59921;51.332;12.410;2023-05-19T05:35:24;1.38;;;1.08;;
55601;SDS011;59921;51.332;12.410;2023-05-19T05:37:50;1.45;;;1.20;;
55601;SDS011;59921;51.332;12.410;2023-05-19T05:40:15;1.63;;;1.20;;
55601;SDS011;59921;51.332;12.410;2023-05-19T05:42:42;2.33;;;1.38;;
55601;SDS011;59921;51.332;12.410;2023-05-19T05:45:07;1.35;;;1.13;;
55601;SDS011;59921;51.332;12.410;2023-05-19T05:47:33;2.33;;;1.30;;
55601;SDS011;59921;51.332;12.410;2023-05-19T05:50:02;1.67;;;1.25;;
55601;SDS011;59921;51.332;12.410;2023-05-19T05:52:29;1.52;;;1.17;;
55601;SDS011;59921;51.332;12.410;2023-05-19T05:54:55;1.80;;;1.20;;
55601;SDS011;59921;51.332;12.410;2023-05-19T05:57:20;1.30;;;1.10;;
55601;SDS011;59921;51.332;12.410;2023-05-19T05:59:46;1.33;;;1.15;;
55601;SDS011;59921;51.332;12.410;2023-05-19T06:02:12;1.77;;;1.30;;
55601;SDS011;59921;51.332;12.410;2023-05-19T06:04:38;1.58;;;1.20;;
55601;SDS011;59921;51.332;12.410;2023-05-19T06:07:04;1.52;;;1.13;;
55601;SDS011;59921;51.332;12.410;2023-05-19T06:09:30;1.73;;;1.20;;
55601;SDS011;59921;51.332;12.410;2023-05-19T06:11:56;1.70;;;1.30;;
55601;SDS011;59921;51.332;12.410;2023-05-19T06:14:22;1.58;;;1.10;;
55601;SDS011;59921;51.332;12.410;2023-05-19T06:16:48;1.67;;;1.10;;
55601;SDS011;59921;51.332;12.410;2023-05-19T06:19:13;1.73;;;1.27;;
55601;SDS011;59921;51.332;12.410;2023-05-19T06:21:39;1.90;;;1.20;;
55601;SDS011;59921;51.332;12.410;2023-05-19T06:24:06;1.88;;;1.35;;
55601;SDS011;59921;51.332;12.410;2023-05-19T06:26:32;1.42;;;1.10;;
55601;SDS011;59921;51.332;12.410;2023-05-19T06:28:57;1.90;;;1.17;;
55601;SDS011;59921;51.332;12.410;2023-05-19T06:31:23;2.03;;;1.27;;
55601;SDS011;59921;51.332;12.410;2023-05-19T06:33:50;1.60;;;1.20;;
55601;SDS011;59921;51.332;12.410;2023-05-19T06:36:16;1.83;;;1.40;;
55601;SDS011;59921;51.332;12.410;2023-05-19T06:38:42;1.55;;;1.10;;
55601;SDS011;59921;51.332;12.410;2023-05-19T06:41:07;2.13;;;1.33;;
55601;SDS011;59921;51.332;12.410;2023-05-19T06:43:33;1.88;;;1.30;;
55601;SDS011;59921;51.332;12.410;2023-05-19T06:45:58;1.25;;;1.10;;
55601;SDS011;59921;51.332;12.410;2023-05-19T06:48:24;2.10;;;1.40;;
55601;SDS011;59921;51.332;12.410;2023-05-19T06:50:49;1.90;;;1.40;;
55601;SDS011;59921;51.332;12.410;2023-05-19T06:53:16;1.52;;;1.10;;
55601;SDS011;59921;51.332;12.410;2023-05-19T06:55:43;1.83;;;1.20;;
55601;SDS011;59921;51.332;12.410;2023-05-19T06:58:08;1.42;;;1.15;;
55601;SDS011;59921;51.332;12.410;2023-05-19T07:00:34;1.83;;;1.35;;
55601;SDS011;59921;51.332;12.410;2023-05-19T07:03:00;2.10;;;1.42;;
55601;SDS011;59921;51.332;12.410;2023-05-19T07:05:25;1.50;;;1.30;;
55601;SDS011;59921;51.332;12.410;2023-05-19T07:07:51;2.45;;;1.40;;
55601;SDS011;59921;51.332;12.410;2023-05-19T07:10:16;1.95;;;1.20;;
55601;SDS011;59921;51.332;12.410;2023-05-19T07:12:42;1.70;;;1.25;;
55601;SDS011;59921;51.332;12.410;2023-05-19T07:15:08;1.65;;;1.45;;
55601;SDS011;59921;51.332;12.410;2023-05-19T07:17:34;1.83;;;1.40;;
55601;SDS011;59921;51.332;12.410;2023-05-19T07:19:59;1.63;;;1.30;;
55601;SDS011;59921;51.332;12.410;2023-05-19T07:22:25;2.10;;;1.35;;
55601;SDS011;59921;51.332;12.410;2023-05-19T07:24:51;2.38;;;1.20;;
55601;SDS011;59921;51.332;12.410;2023-05-19T07:27:17;1.63;;;1.20;;
55601;SDS011;59921;51.332;12.410;2023-05-19T07:29:42;4.43;;;1.60;;
55601;SDS011;59921;51.332;12.410;2023-05-19T07:32:08;3.33;;;1.50;;
55601;SDS011;59921;51.332;12.410;2023-05-19T07:34:33;5.40;;;2.00;;
55601;SDS011;59921;51.332;12.410;2023-05-19T07:36:59;5.00;;;1.70;;
55601;SDS011;59921;51.332;12.410;2023-05-19T07:39:26;7.50;;;1.70;;
55601;SDS011;59921;51.332;12.410;2023-05-19T07:41:54;6.43;;;1.77;;
55601;SDS011;59921;51.332;12.410;2023-05-19T07:44:20;5.97;;;1.70;;
55601;SDS011;59921;51.332;12.410;2023-05-19T07:46:46;4.50;;;1.60;;
55601;SDS011;59921;51.332;12.410;2023-05-19T07:49:12;6.05;;;1.80;;
55601;SDS011;59921;51.332;12.410;2023-05-19T07:51:37;3.72;;;1.75;;
55601;SDS011;59921;51.332;12.410;2023-05-19T07:54:03;4.82;;;1.70;;
55601;SDS011;59921;51.332;12.410;2023-05-19T07:56:28;5.35;;;1.58;;
55601;SDS011;59921;51.332;12.410;2023-05-19T07:58:54;4.80;;;1.67;;
55601;SDS011;59921;51.332;12.410;2023-05-19T08:01:19;5.93;;;1.48;;
55601;SDS011;59921;51.332;12.410;2023-05-19T08:03:45;5.00;;;2.20;;
55601;SDS011;59921;51.332;12.410;2023-05-19T08:06:11;6.05;;;1.40;;
55601;SDS011;59921;51.332;12.410;2023-05-19T08:08:36;3.08;;;1.48;;
55601;SDS011;59921;51.332;12.410;2023-05-19T08:11:02;2.80;;;1.73;;
55601;SDS011;59921;51.332;12.410;2023-05-19T08:13:28;5.05;;;1.60;;
55601;SDS011;59921;51.332;12.410;2023-05-19T08:15:55;4.10;;;1.73;;
55601;SDS011;59921;51.332;12.410;2023-05-19T08:18:24;5.20;;;1.63;;
55601;SDS011;59921;51.332;12.410;2023-05-19T08:20:52;4.43;;;1.50;;
55601;SDS011;59921;51.332;12.410;2023-05-19T08:23:18;8.30;;;1.50;;
55601;SDS011;59921;51.332;12.410;2023-05-19T08:25:43;3.97;;;1.50;;
55601;SDS011;59921;51.332;12.410;2023-05-19T08:28:09;4.32;;;1.45;;
55601;SDS011;59921;51.332;12.410;2023-05-19T08:30:35;2.55;;;1.30;;
55601;SDS011;59921;51.332;12.410;2023-05-19T08:33:00;2.55;;;1.30;;
55601;SDS011;59921;51.332;12.410;2023-05-19T08:35:26;3.20;;;1.40;;
55601;SDS011;59921;51.332;12.410;2023-05-19T08:37:52;3.30;;;1.38;;
55601;SDS011;59921;51.332;12.410;2023-05-19T08:40:19;3.25;;;1.40;;
55601;SDS011;59921;51.332;12.410;2023-05-19T08:42:45;3.63;;;1.40;;
55601;SDS011;59921;51.332;12.410;2023-05-19T08:45:12;2.78;;;1.30;;
55601;SDS011;59921;51.332;12.410;2023-05-19T08:47:39;2.97;;;1.40;;
55601;SDS011;59921;51.332;12.410;2023-05-19T08:50:05;3.83;;;1.35;;
55601;SDS011;59921;51.332;12.410;2023-05-19T08:52:41;5.75;;;1.25;;
55601;SDS011;59921;51.332;12.410;2023-05-19T08:55:16;3.42;;;1.50;;
55601;SDS011;59921;51.332;12.410;2023-05-19T08:57:51;4.28;;;1.35;;
55601;SDS011;59921;51.332;12.410;2023-05-19T09:00:18;3.72;;;1.50;;
55601;SDS011;59921;51.332;12.410;2023-05-19T09:02:45;5.57;;;1.70;;
55601;SDS011;59921;51.332;12.410;2023-05-19T09:05:13;3.42;;;1.17;;
55601;SDS011;59921;51.332;12.410;2023-05-19T09:07:40;6.22;;;1.45;;
55601;SDS011;59921;51.332;12.410;2023-05-19T09:10:07;3.00;;;1.30;;
55601;SDS011;59921;51.332;12.410;2023-05-19T09:12:33;2.20;;;1.25;;
55601;SDS011;59921;51.332;12.410;2023-05-19T09:14:59;4.00;;;1.45;;
55601;SDS011;59921;51.332;12.410;2023-05-19T09:17:26;2.88;;;1.30;;
55601;SDS011;59921;51.332;12.410;2023-05-19T09:19:51;2.13;;;1.10;;
55601;SDS011;59921;51.332;12.410;2023-05-19T09:22:17;3.63;;;1.40;;
55601;SDS011;59921;51.332;12.410;2023-05-19T09:24:43;3.70;;;1.60;;
55601;SDS011;59921;51.332;12.410;2023-05-19T09:27:08;2.55;;;1.30;;
55601;SDS011;59921;51.332;12.410;2023-05-19T09:29:34;2.38;;;1.25;;
55601;SDS011;59921;51.332;12.410;2023-05-19T09:32:00;2.70;;;1.40;;
55601;SDS011;59921;51.332;12.410;2023-05-19T09:34:29;3.50;;;1.30;;
55601;SDS011;59921;51.332;12.410;2023-05-19T09:36:55;2.90;;;1.33;;
55601;SDS011;59921;51.332;12.410;2023-05-19T09:39:22;2.50;;;1.40;;
55601;SDS011;59921;51.332;12.410;2023-05-19T09:41:52;2.03;;;1.27;;
55601;SDS011;59921;51.332;12.410;2023-05-19T09:44:21;2.47;;;1.35;;
55601;SDS011;59921;51.332;12.410;2023-05-19T09:46:51;2.08;;;1.13;;
55601;SDS011;59921;51.332;12.410;2023-05-19T09:49:18;3.13;;;1.25;;
55601;SDS011;59921;51.332;12.410;2023-05-19T09:51:47;2.47;;;1.10;;
55601;SDS011;59921;51.332;12.410;2023-05-19T09:54:14;2.47;;;1.35;;
55601;SDS011;59921;51.332;12.410;2023-05-19T09:56:40;2.03;;;1.30;;
55601;SDS011;59921;51.332;12.410;2023-05-19T09:59:06;2.67;;;1.30;;
55601;SDS011;59921;51.332;12.410;2023-05-19T10:01:32;2.17;;;1.20;;
55601;SDS011;59921;51.332;12.410;2023-05-19T10:04:00;2.72;;;1.13;;
55601;SDS011;59921;51.332;12.410;2023-05-19T10:06:28;2.47;;;1.40;;
55601;SDS011;59921;51.332;12.410;2023-05-19T10:08:54;1.92;;;1.20;;
55601;SDS011;59921;51.332;12.410;2023-05-19T10:11:22;2.45;;;1.20;;
55601;SDS011;59921;51.332;12.410;2023-05-19T10:13:49;2.50;;;1.10;;
55601;SDS011;59921;51.332;12.410;2023-05-19T10:16:16;1.60;;;1.02;;
55601;SDS011;59921;51.332;12.410;2023-05-19T10:18:43;2.38;;;1.20;;
55601;SDS011;59921;51.332;12.410;2023-05-19T10:21:10;2.20;;;1.33;;
55601;SDS011;59921;51.332;12.410;2023-05-19T10:23:37;3.13;;;1.23;;
55601;SDS011;59921;51.332;12.410;2023-05-19T10:26:02;2.10;;;1.20;;
55601;SDS011;59921;51.332;12.410;2023-05-19T10:28:33;1.70;;;1.20;;
55601;SDS011;59921;51.332;12.410;2023-05-19T10:31:02;2.50;;;1.25;;
55601;SDS011;59921;51.332;12.410;2023-05-19T10:33:46;2.30;;;1.30;;
55601;SDS011;59921;51.332;12.410;2023-05-19T10:39:05;2.00;;;1.30;;
55601;SDS011;59921;51.332;12.410;2023-05-19T10:41:45;2.47;;;1.15;;
55601;SDS011;59921;51.332;12.410;2023-05-19T10:47:10;1.38;;;0.90;;
55601;SDS011;59921;51.332;12.410;2023-05-19T10:49:36;2.40;;;1.20;;
55601;SDS011;59921;51.332;12.410;2023-05-19T10:52:03;2.47;;;1.10;;
55601;SDS011;59921;51.332;12.410;2023-05-19T10:54:45;2.67;;;1.30;;
55601;SDS011;59921;51.332;12.410;2023-05-19T10:57:17;1.83;;;1.30;;
55601;SDS011;59921;51.332;12.410;2023-05-19T10:59:45;3.20;;;1.40;;
55601;SDS011;59921;51.332;12.410;2023-05-19T11:02:35;1.30;;;1.00;;
55601;SDS011;59921;51.332;12.410;2023-05-19T11:05:07;1.80;;;1.15;;
55601;SDS011;59921;51.332;12.410;2023-05-19T11:07:41;1.92;;;1.17;;
55601;SDS011;59921;51.332;12.410;2023-05-19T11:10:09;2.25;;;1.20;;
55601;SDS011;59921;51.332;12.410;2023-05-19T11:12:39;1.67;;;1.10;;
55601;SDS011;59921;51.332;12.410;2023-05-19T11:15:12;1.75;;;1.05;;
55601;SDS011;59921;51.332;12.410;2023-05-19T11:17:39;1.77;;;1.00;;
55601;SDS011;59921;51.332;12.410;2023-05-19T11:20:08;1.50;;;0.82;;
55601;SDS011;59921;51.332;12.410;2023-05-19T11:23:07;2.20;;;1.10;;
55601;SDS011;59921;51.332;12.410;2023-05-19T11:28:15;2.03;;;1.10;;
55601;SDS011;59921;51.332;12.410;2023-05-19T11:30:45;1.77;;;1.05;;
55601;SDS011;59921;51.332;12.410;2023-05-19T11:33:14;1.90;;;1.10;;
55601;SDS011;59921;51.332;12.410;2023-05-19T11:35:46;1.27;;;1.00;;
55601;SDS011;59921;51.332;12.410;2023-05-19T11:38:13;1.60;;;1.05;;
55601;SDS011;59921;51.332;12.410;2023-05-19T11:40:40;2.15;;;1.20;;
55601;SDS011;59921;51.332;12.410;2023-05-19T11:43:06;1.20;;;0.93;;
55601;SDS011;59921;51.332;12.410;2023-05-19T11:45:32;2.00;;;1.30;;
55601;SDS011;59921;51.332;12.410;2023-05-19T11:47:59;2.13;;;1.00;;
55601;SDS011;59921;51.332;12.410;2023-05-19T11:50:25;1.48;;;1.10;;
55601;SDS011;59921;51.332;12.410;2023-05-19T11:52:51;1.95;;;1.15;;
55601;SDS011;59921;51.332;12.410;2023-05-19T11:55:17;2.40;;;1.10;;
55601;SDS011;59921;51.332;12.410;2023-05-19T12:00:28;1.30;;;1.00;;
55601;SDS011;59921;51.332;12.410;2023-05-19T12:02:55;1.60;;;1.15;;
55601;SDS011;59921;51.332;12.410;2023-05-19T12:05:25;1.95;;;1.05;;
55601;SDS011;59921;51.332;12.410;2023-05-19T12:07:52;1.38;;;1.10;;
55601;SDS011;59921;51.332;12.410;2023-05-19T12:10:25;1.30;;;0.98;;
55601;SDS011;59921;51.332;12.410;2023-05-19T12:12:54;1.58;;;0.90;;
55601;SDS011;59921;51.332;12.410;2023-05-19T12:15:21;1.85;;;1.05;;
55601;SDS011;59921;51.332;12.410;2023-05-19T12:17:48;1.98;;;1.08;;
55601;SDS011;59921;51.332;12.410;2023-05-19T12:20:34;1.52;;;1.00;;
55601;SDS011;59921;51.332;12.410;2023-05-19T12:23:01;1.83;;;1.00;;
55601;SDS011;59921;51.332;12.410;2023-05-19T12:25:28;2.15;;;1.05;;
55601;SDS011;59921;51.332;12.410;2023-05-19T12:27:58;1.70;;;0.93;;
55601;SDS011;59921;51.332;12.410;2023-05-19T12:30:32;1.30;;;0.85;;
55601;SDS011;59921;51.332;12.410;2023-05-19T12:32:58;1.73;;;1.00;;
55601;SDS011;59921;51.332;12.410;2023-05-19T12:35:27;1.25;;;0.90;;
55601;SDS011;59921;51.332;12.410;2023-05-19T12:37:54;1.00;;;0.80;;
55601;SDS011;59921;51.332;12.410;2023-05-19T12:40:20;1.35;;;0.85;;
55601;SDS011;59921;51.332;12.410;2023-05-19T12:42:46;1.30;;;1.00;;
55601;SDS011;59921;51.332;12.410;2023-05-19T12:45:19;1.90;;;1.13;;
55601;SDS011;59921;51.332;12.410;2023-05-19T12:47:46;2.10;;;1.10;;
55601;SDS011;59921;51.332;12.410;2023-05-19T12:50:12;1.77;;;1.00;;
55601;SDS011;59921;51.332;12.410;2023-05-19T12:52:42;1.45;;;1.00;;
55601;SDS011;59921;51.332;12.410;2023-05-19T12:55:11;1.38;;;0.95;;
55601;SDS011;59921;51.332;12.410;2023-05-19T12:57:39;2.13;;;1.00;;
55601;SDS011;59921;51.332;12.410;2023-05-19T13:00:07;1.48;;;1.08;;
55601;SDS011;59921;51.332;12.410;2023-05-19T13:02:53;1.33;;;0.90;;
55601;SDS011;59921;51.332;12.410;2023-05-19T13:05:23;1.60;;;1.00;;
55601;SDS011;59921;51.332;12.410;2023-05-19T13:08:08;1.25;;;0.90;;
55601;SDS011;59921;51.332;12.410;2023-05-19T13:10:35;1.33;;;0.90;;
55601;SDS011;59921;51.332;12.410;2023-05-19T13:13:01;1.42;;;0.90;;
55601;SDS011;59921;51.332;12.410;2023-05-19T13:15:28;1.73;;;1.20;;
55601;SDS011;59921;51.332;12.410;2023-05-19T13:17:56;1.73;;;1.00;;
55601;SDS011;59921;51.332;12.410;2023-05-19T13:20:22;1.45;;;0.90;;
55601;SDS011;59921;51.332;12.410;2023-05-19T13:22:48;1.48;;;1.00;;
55601;SDS011;59921;51.332;12.410;2023-05-19T13:25:13;1.52;;;1.10;;
55601;SDS011;59921;51.332;12.410;2023-05-19T13:27:39;1.23;;;1.08;;
55601;SDS011;59921;51.332;12.410;2023-05-19T13:30:05;1.92;;;1.10;;
55601;SDS011;59921;51.332;12.410;2023-05-19T13:32:31;1.40;;;0.90;;
55601;SDS011;59921;51.332;12.410;2023-05-19T13:34:56;1.20;;;0.98;;
55601;SDS011;59921;51.332;12.410;2023-05-19T13:37:22;2.20;;;1.15;;
55601;SDS011;59921;51.332;12.410;2023-05-19T13:39:48;1.65;;;1.00;;
55601;SDS011;59921;51.332;12.410;2023-05-19T13:42:13;0.88;;;0.80;;
55601;SDS011;59921;51.332;12.410;2023-05-19T13:44:41;1.13;;;1.00;;
55601;SDS011;59921;51.332;12.410;2023-05-19T13:47:06;1.08;;;0.80;;
55601;SDS011;59921;51.332;12.410;2023-05-19T13:49:32;1.10;;;0.98;;
55601;SDS011;59921;51.332;12.410;2023-05-19T13:51:57;1.20;;;1.05;;
55601;SDS011;59921;51.332;12.410;2023-05-19T13:54:24;2.33;;;1.33;;
55601;SDS011;59921;51.332;12.410;2023-05-19T13:56:49;1.00;;;0.80;;
55601;SDS011;59921;51.332;12.410;2023-05-19T13:59:15;1.08;;;0.95;;
55601;SDS011;59921;51.332;12.410;2023-05-19T14:01:41;1.23;;;0.90;;
55601;SDS011;59921;51.332;12.410;2023-05-19T14:04:08;2.13;;;0.98;;
55601;SDS011;59921;51.332;12.410;2023-05-19T14:06:34;1.10;;;1.00;;
55601;SDS011;59921;51.332;12.410;2023-05-19T14:09:02;1.88;;;1.00;;
55601;SDS011;59921;51.332;12.410;2023-05-19T14:11:28;1.17;;;1.00;;
55601;SDS011;59921;51.332;12.410;2023-05-19T14:13:54;1.40;;;1.20;;
55601;SDS011;59921;51.332;12.410;2023-05-19T14:16:20;1.17;;;0.70;;
55601;SDS011;59921;51.332;12.410;2023-05-19T14:18:46;1.77;;;1.05;;
55601;SDS011;59921;51.332;12.410;2023-05-19T14:21:12;1.20;;;0.90;;
55601;SDS011;59921;51.332;12.410;2023-05-19T14:23:37;1.77;;;1.10;;
55601;SDS011;59921;51.332;12.410;2023-05-19T14:26:03;1.05;;;0.80;;
55601;SDS011;59921;51.332;12.410;2023-05-19T14:28:29;1.02;;;0.90;;
55601;SDS011;59921;51.332;12.410;2023-05-19T14:30:54;1.45;;;0.80;;
55601;SDS011;59921;51.332;12.410;2023-05-19T14:33:20;1.10;;;0.90;;
55601;SDS011;59921;51.332;12.410;2023-05-19T14:35:46;1.50;;;1.10;;
55601;SDS011;59921;51.332;12.410;2023-05-19T14:38:12;1.13;;;0.90;;
55601;SDS011;59921;51.332;12.410;2023-05-19T14:40:37;1.05;;;0.90;;
55601;SDS011;59921;51.332;12.410;2023-05-19T14:43:05;1.27;;;0.90;;
55601;SDS011;59921;51.332;12.410;2023-05-19T14:45:32;1.60;;;0.90;;
55601;SDS011;59921;51.332;12.410;2023-05-19T14:47:57;1.45;;;1.00;;
55601;SDS011;59921;51.332;12.410;2023-05-19T14:50:23;1.15;;;1.05;;
55601;SDS011;59921;51.332;12.410;2023-05-19T14:52:49;1.35;;;0.95;;
55601;SDS011;59921;51.332;12.410;2023-05-19T14:55:15;1.33;;;1.05;;
55601;SDS011;59921;51.332;12.410;2023-05-19T14:57:40;1.48;;;0.90;;
55601;SDS011;59921;51.332;12.410;2023-05-19T15:00:06;1.20;;;1.05;;